createdAt,value
2023-04-01T00:00:01.430Z,95926.25
2023-04-01T00:02:04.367Z,95933.50
2023-04-01T00:04:06.957Z,95926.50
2023-04-01T00:06:09.858Z,95926.50
2023-04-01T00:08:12.470Z,95940.25
2023-04-01T00:10:17.533Z,95935.91
2023-04-01T00:12:20.235Z,95945.00
2023-04-01T00:14:22.846Z,95945.22
2023-04-01T00:16:26.782Z,95940.78
2023-04-01T00:18:29.441Z,95938.00
2023-04-01T00:20:32.401Z,95940.44
2023-04-01T00:22:35.067Z,95931.03
2023-04-01T00:24:37.952Z,95932.16
2023-04-01T00:26:41.749Z,95934.41
2023-04-01T00:28:44.320Z,95925.25
2023-04-01T00:30:47.451Z,95926.53
2023-04-01T00:32:54.849Z,95917.75
2023-04-01T00:34:57.486Z,95921.19
2023-04-01T00:37:00.089Z,95929.78
2023-04-01T00:39:02.642Z,95919.91
2023-04-01T00:41:06.097Z,95925.72
2023-04-01T00:43:14.208Z,95931.50
2023-04-01T00:45:31.300Z,95924.34
2023-04-01T00:47:34.451Z,95922.88
2023-04-01T00:49:40.805Z,95934.63
2023-04-01T00:51:45.211Z,95950.31
2023-04-01T00:53:51.971Z,95930.84
2023-04-01T00:56:01.660Z,95932.50
2023-04-01T00:58:10.851Z,95934.03
2023-04-01T01:00:16.480Z,95929.03
2023-04-01T01:02:19.409Z,95924.72
2023-04-01T01:04:26.981Z,95922.91
2023-04-01T01:06:41.149Z,95924.59
2023-04-01T01:09:08.443Z,95932.84
2023-04-01T01:11:14.209Z,95923.72
2023-04-01T01:13:21.255Z,95926.19
2023-04-01T01:15:30.161Z,95927.28
2023-04-01T01:17:45.438Z,95933.63
2023-04-01T01:20:12.780Z,95924.41
2023-04-01T01:22:48.235Z,95923.91
2023-04-01T01:25:03.825Z,95923.69
2023-04-01T01:27:10.171Z,95920.56
2023-04-01T01:29:31.360Z,95917.47
2023-04-01T01:31:39.173Z,95921.41
2023-04-01T01:34:01.597Z,95922.91
2023-04-01T01:36:08.817Z,95921.59
2023-04-01T01:38:16.166Z,95922.09
2023-04-01T01:40:19.655Z,95922.44
2023-04-01T01:42:24.834Z,95922.50
2023-04-01T01:44:30.817Z,95919.50
2023-04-01T01:46:33.535Z,95906.19
2023-04-01T01:48:37.940Z,95919.28
2023-04-01T01:50:42.466Z,95907.00
2023-04-01T01:52:46.419Z,95917.25
2023-04-01T01:54:50.358Z,95918.66
2023-04-01T01:57:05.520Z,95920.75
2023-04-01T01:59:13.072Z,95921.44
2023-04-01T02:01:18.627Z,95928.19
2023-04-01T02:03:23.401Z,95919.34
2023-04-01T02:05:30.246Z,95932.88
2023-04-01T02:07:37.428Z,95926.81
2023-04-01T02:09:42.090Z,95946.13
2023-04-01T02:11:50.521Z,95941.41
2023-04-01T02:13:57.124Z,95933.53
2023-04-01T02:16:05.822Z,95940.25
2023-04-01T02:18:09.624Z,95931.09
2023-04-01T02:20:17.534Z,95936.28
2023-04-01T02:22:23.926Z,95944.63
2023-04-01T02:24:30.043Z,95933.84
2023-04-01T02:26:34.092Z,95940.09
2023-04-01T02:28:41.179Z,95936.81
2023-04-01T02:30:46.522Z,95937.41
2023-04-01T02:32:50.439Z,95939.84
2023-04-01T02:34:53.505Z,95935.41
2023-04-01T02:36:57.957Z,95938.09
2023-04-01T02:39:03.378Z,95945.31
2023-04-01T02:41:07.084Z,95957.06
2023-04-01T02:43:11.137Z,95946.81
2023-04-01T02:45:15.472Z,95950.09
2023-04-01T02:47:18.076Z,95951.44
2023-04-01T02:49:20.838Z,95956.81
2023-04-01T02:51:23.409Z,95947.47
2023-04-01T02:53:26.190Z,95960.66
2023-04-01T02:55:28.957Z,95933.66
2023-04-01T02:57:31.725Z,95932.03
2023-04-01T02:59:35.693Z,95947.38
2023-04-01T03:01:38.330Z,95937.56
2023-04-01T03:03:40.962Z,95932.63
2023-04-01T03:05:43.600Z,95942.19
2023-04-01T03:07:46.393Z,95939.25
2023-04-01T03:09:49.053Z,95937.16
2023-04-01T03:11:51.652Z,95942.63
2023-04-01T03:13:54.252Z,95938.97
2023-04-01T03:15:58.220Z,95937.97
2023-04-01T03:18:00.867Z,95930.88
2023-04-01T03:20:05.859Z,95939.00
2023-04-01T03:22:08.481Z,95940.91
2023-04-01T03:24:11.166Z,95947.91
2023-04-01T03:26:14.600Z,95949.81
2023-04-01T03:28:17.230Z,95948.13
2023-04-01T03:30:19.987Z,95949.44
2023-04-01T03:32:24.015Z,95952.16
2023-04-01T03:34:26.763Z,95945.41
2023-04-01T03:36:29.427Z,95950.19
2023-04-01T03:38:32.035Z,95935.50
2023-04-01T03:40:38.177Z,95945.66
2023-04-01T03:42:40.949Z,95941.97
2023-04-01T03:44:43.614Z,95946.09
2023-04-01T03:46:46.229Z,95942.13
2023-04-01T03:48:50.259Z,95935.31
2023-04-01T03:50:53.122Z,95937.38
2023-04-01T03:52:55.704Z,95937.63
2023-04-01T03:54:58.328Z,95936.31
2023-04-01T03:57:01.007Z,95942.94
2023-04-01T03:59:05.773Z,95938.47
2023-04-01T04:01:16.082Z,95940.47
2023-04-01T04:03:18.788Z,95930.59
2023-04-01T04:05:22.788Z,95925.47
2023-04-01T04:07:25.440Z,95914.59
2023-04-01T04:09:28.003Z,95914.31
2023-04-01T04:11:33.279Z,95916.72
2023-04-01T04:13:36.835Z,95918.88
2023-04-01T04:15:40.415Z,95908.84
2023-04-01T04:17:43.212Z,95904.47
2023-04-01T04:19:45.989Z,95922.63
2023-04-01T04:21:49.889Z,95916.50
2023-04-01T04:23:52.836Z,95910.03
2023-04-01T04:25:57.077Z,95897.94
2023-04-01T04:27:59.618Z,95902.81
2023-04-01T04:30:02.203Z,95906.16
2023-04-01T04:32:04.890Z,95893.06
2023-04-01T04:34:07.635Z,95901.16
2023-04-01T04:36:10.575Z,95902.50
2023-04-01T04:38:14.475Z,95910.13
2023-04-01T04:40:17.147Z,95902.97
2023-04-01T04:42:19.705Z,95906.34
2023-04-01T04:44:22.293Z,95902.31
2023-04-01T04:46:25.016Z,95905.91
2023-04-01T04:48:27.614Z,95895.84
2023-04-01T04:50:30.176Z,95900.97
2023-04-01T04:52:32.709Z,95902.31
2023-04-01T04:54:36.729Z,95915.56
2023-04-01T04:56:39.326Z,95907.53
2023-04-01T04:58:41.933Z,95899.66
2023-04-01T05:00:44.741Z,95910.31
2023-04-01T05:02:47.359Z,95920.47
2023-04-01T05:04:49.986Z,95922.78
2023-04-01T05:06:52.825Z,95919.28
2023-04-01T05:08:55.377Z,95914.88
2023-04-01T05:10:59.256Z,95924.31
2023-04-01T05:13:01.834Z,95920.38
2023-04-01T05:15:05.130Z,95922.47
2023-04-01T05:17:11.076Z,95914.84
2023-04-01T05:19:13.637Z,95914.56
2023-04-01T05:21:17.171Z,95917.75
2023-04-01T05:23:21.946Z,95907.94
2023-04-01T05:25:24.497Z,95911.47
2023-04-01T05:27:28.454Z,95910.06
2023-04-01T05:29:31.009Z,95903.69
2023-04-01T05:31:33.649Z,95915.25
2023-04-01T05:33:37.072Z,95899.25
2023-04-01T05:35:40.114Z,95902.50
2023-04-01T05:37:42.768Z,95904.09
2023-04-01T05:39:45.408Z,95892.03
2023-04-01T05:41:47.974Z,95904.84
2023-04-01T05:43:51.990Z,95899.81
2023-04-01T05:45:54.548Z,95896.47
2023-04-01T05:47:57.228Z,95895.13
2023-04-01T05:49:59.816Z,95884.53
2023-04-01T05:52:02.381Z,95891.94
2023-04-01T05:54:06.277Z,95894.53
2023-04-01T05:56:10.353Z,95886.47
2023-04-01T05:58:12.935Z,95886.28
2023-04-01T06:00:18.328Z,95888.75
2023-04-01T06:02:21.009Z,95881.25
2023-04-01T06:04:23.730Z,95894.09
2023-04-01T06:06:27.950Z,95881.84
2023-04-01T06:08:33.005Z,95881.34
2023-04-01T06:10:45.911Z,95869.50
2023-04-01T06:13:00.293Z,95878.50
2023-04-01T06:15:31.564Z,95881.44
2023-04-01T06:17:47.837Z,95881.63
2023-04-01T06:19:57.642Z,95874.91
2023-04-01T06:22:20.139Z,95863.41
2023-04-01T06:24:42.689Z,95865.91
2023-04-01T06:26:53.901Z,95873.13
2023-04-01T06:29:36.865Z,95859.94
2023-04-01T06:31:59.704Z,95870.53
2023-04-01T06:34:22.258Z,95867.81
2023-04-01T06:36:56.219Z,95851.84
2023-04-01T06:39:14.666Z,95869.31
2023-04-01T06:41:38.168Z,95865.03
2023-04-01T06:43:51.270Z,95858.66
2023-04-01T06:46:02.972Z,95860.22
2023-04-01T06:48:18.913Z,95858.09
2023-04-01T06:50:26.919Z,95852.09
2023-04-01T06:52:37.386Z,95848.06
2023-04-01T06:54:42.611Z,95847.44
2023-04-01T06:56:50.930Z,95868.56
2023-04-01T06:58:56.500Z,95842.00
2023-04-01T07:01:03.001Z,95846.31
2023-04-01T07:03:20.863Z,95856.84
2023-04-01T07:05:25.081Z,95855.13
2023-04-01T07:07:35.289Z,95852.25
2023-04-01T07:09:42.095Z,95864.44
2023-04-01T07:11:45.169Z,95846.91
2023-04-01T07:13:53.210Z,95863.25
2023-04-01T07:16:07.466Z,95854.84
2023-04-01T07:18:18.267Z,95861.13
2023-04-01T07:20:27.334Z,95857.59
2023-04-01T07:22:34.845Z,95859.53
2023-04-01T07:24:41.244Z,95860.75
2023-04-01T07:26:44.532Z,95887.03
2023-04-01T07:28:47.285Z,95870.84
2023-04-01T07:31:02.752Z,95854.38
2023-04-01T07:33:11.252Z,95860.00
2023-04-01T07:35:31.171Z,95857.50
2023-04-01T07:37:43.680Z,95865.81
2023-04-01T07:39:56.586Z,95888.78
2023-04-01T07:42:08.356Z,95864.16
2023-04-01T07:44:23.206Z,95870.69
2023-04-01T07:46:45.858Z,95874.44
2023-04-01T07:48:57.101Z,95867.38
2023-04-01T07:51:04.548Z,95874.59
2023-04-01T07:53:15.692Z,95862.75
2023-04-01T07:55:23.400Z,95860.63
2023-04-01T07:57:32.666Z,95875.16
2023-04-01T07:59:46.418Z,95872.44
2023-04-01T08:01:57.083Z,95872.16
2023-04-01T08:04:19.568Z,95874.50
2023-04-01T08:06:30.635Z,95868.66
2023-04-01T08:08:43.856Z,95888.16
2023-04-01T08:10:52.332Z,95879.69
2023-04-01T08:13:04.259Z,95883.91
2023-04-01T08:15:17.433Z,95880.06
2023-04-01T08:17:30.152Z,95884.56
2023-04-01T08:19:45.291Z,95899.63
2023-04-01T08:21:53.405Z,95901.84
2023-04-01T08:23:59.260Z,95910.91
2023-04-01T08:26:07.232Z,95904.75
2023-04-01T08:28:17.197Z,95897.31
2023-04-01T08:30:21.881Z,95901.94
2023-04-01T08:32:30.516Z,95909.09
2023-04-01T08:34:38.535Z,95904.31
2023-04-01T08:36:46.077Z,95907.13
2023-04-01T08:38:55.407Z,95909.38
2023-04-01T08:41:17.961Z,95899.22
2023-04-01T08:43:32.966Z,95910.69
2023-04-01T08:45:49.692Z,95908.72
2023-04-01T08:48:10.712Z,95899.38
2023-04-01T08:50:39.945Z,95901.47
2023-04-01T08:52:49.632Z,95911.09
2023-04-01T08:55:22.211Z,95897.69
2023-04-01T08:57:42.786Z,95904.50
2023-04-01T08:59:56.134Z,95905.59
2023-04-01T09:02:22.110Z,95922.94
2023-04-01T09:04:39.390Z,95909.16
2023-04-01T09:06:54.221Z,95924.44
2023-04-01T09:09:22.158Z,95904.91
2023-04-01T09:11:41.947Z,95910.09
2023-04-01T09:14:02.025Z,95919.06
2023-04-01T09:16:22.202Z,95914.25
2023-04-01T09:18:53.714Z,95912.31
2023-04-01T09:21:14.182Z,95917.00
2023-04-01T09:23:39.850Z,95923.75
2023-04-01T09:26:01.791Z,95913.97
2023-04-01T09:28:12.640Z,95922.75
2023-04-01T09:30:44.037Z,95927.94
2023-04-01T09:33:10.499Z,95930.06
2023-04-01T09:35:40.772Z,95922.97
2023-04-01T09:37:54.367Z,95927.00
2023-04-01T09:40:20.144Z,95938.59
2023-04-01T09:42:44.627Z,95931.84
2023-04-01T09:44:56.856Z,95926.50
2023-04-01T09:47:12.855Z,95943.72
2023-04-01T09:49:44.356Z,95946.56
2023-04-01T09:51:58.861Z,95957.16
2023-04-01T09:54:13.972Z,95957.84
2023-04-01T09:57:01.722Z,95948.69
2023-04-01T09:59:17.358Z,95959.16
2023-04-01T10:01:59.502Z,95952.81
2023-04-01T10:04:25.733Z,95949.28
2023-04-01T10:06:59.349Z,95956.59
2023-04-01T10:09:40.628Z,95968.56
2023-04-01T10:12:02.496Z,95956.16
2023-04-01T10:14:24.322Z,95950.78
2023-04-01T10:17:19.122Z,95961.69
2023-04-01T10:20:09.151Z,95959.75
2023-04-01T10:22:54.544Z,95952.81
2023-04-01T10:25:37.382Z,95956.31
2023-04-01T10:28:12.242Z,95966.34
2023-04-01T10:30:47.249Z,95962.22
2023-04-01T10:33:21.203Z,95958.03
2023-04-01T10:36:08.714Z,95958.31
2023-04-01T10:38:58.921Z,95967.22
2023-04-01T10:41:26.275Z,95973.41
2023-04-01T10:44:07.804Z,95968.66
2023-04-01T10:46:36.183Z,95974.84
2023-04-01T10:49:20.366Z,95980.56
2023-04-01T10:51:40.072Z,95968.06
2023-04-01T10:54:16.735Z,95966.19
2023-04-01T10:56:41.672Z,95957.09
2023-04-01T10:59:29.890Z,95961.81
2023-04-01T11:02:11.564Z,95972.34
2023-04-01T11:04:52.640Z,95975.19
2023-04-01T11:07:50.493Z,95953.00
2023-04-01T11:10:42.551Z,95954.13
2023-04-01T11:13:11.301Z,95965.66
2023-04-01T11:15:46.027Z,95971.47
2023-04-01T11:18:39.730Z,95965.31
2023-04-01T11:21:21.447Z,95959.88
2023-04-01T11:24:04.575Z,95970.84
2023-04-01T11:26:13.859Z,95969.78
2023-04-01T11:28:50.258Z,95962.03
2023-04-01T11:31:21.987Z,95976.22
2023-04-01T11:33:32.065Z,95982.09
2023-04-01T11:36:01.342Z,95971.00
2023-04-01T11:38:19.475Z,95978.72
2023-04-01T11:40:30.114Z,95986.41
2023-04-01T11:42:43.171Z,95993.44
2023-04-01T11:44:53.348Z,95987.56
2023-04-01T11:47:27.652Z,95986.22
2023-04-01T11:49:46.490Z,95997.06
2023-04-01T11:52:11.345Z,95977.16
2023-04-01T11:54:26.563Z,95994.59
2023-04-01T11:56:58.572Z,95987.41
2023-04-01T11:59:19.770Z,95987.88
2023-04-01T12:01:29.325Z,95988.63
2023-04-01T12:03:59.982Z,95980.63
2023-04-01T12:06:13.472Z,95980.72
2023-04-01T12:08:30.361Z,95990.84
2023-04-01T12:10:41.856Z,95976.88
2023-04-01T12:13:00.694Z,96003.22
2023-04-01T12:15:17.522Z,95992.03
2023-04-01T12:17:35.405Z,95992.72
2023-04-01T12:19:50.428Z,95993.59
2023-04-01T12:22:06.713Z,96004.97
2023-04-01T12:24:47.540Z,95999.34
2023-04-01T12:27:04.302Z,96005.25
2023-04-01T12:29:23.968Z,96002.06
2023-04-01T12:31:37.834Z,96001.38
2023-04-01T12:33:53.913Z,96001.84
2023-04-01T12:36:11.955Z,96005.97
2023-04-01T12:38:26.571Z,96005.97
2023-04-01T12:40:49.792Z,96011.38
2023-04-01T12:43:04.630Z,96002.78
2023-04-01T12:45:29.403Z,96005.22
2023-04-01T12:47:57.733Z,96011.03
2023-04-01T12:50:28.777Z,96017.72
2023-04-01T12:52:46.692Z,96011.84
2023-04-01T12:55:34.036Z,96012.19
2023-04-01T12:57:55.657Z,96023.22
2023-04-01T13:00:15.378Z,96002.22
2023-04-01T13:02:30.017Z,96003.53
2023-04-01T13:04:46.789Z,95999.00
2023-04-01T13:07:01.281Z,96009.31
2023-04-01T13:09:25.168Z,96013.78
2023-04-01T13:11:41.492Z,96015.19
2023-04-01T13:14:30.869Z,96019.38
2023-04-01T13:16:39.863Z,96004.88
2023-04-01T13:18:56.988Z,96006.34
2023-04-01T13:21:08.169Z,96010.25
2023-04-01T13:23:25.035Z,96002.66
2023-04-01T13:25:38.401Z,96000.38
2023-04-01T13:27:45.703Z,96016.06
2023-04-01T13:30:09.775Z,96012.16
2023-04-01T13:32:33.363Z,96002.38
2023-04-01T13:35:01.938Z,96003.75
2023-04-01T13:37:31.406Z,96007.22
2023-04-01T13:39:53.365Z,96014.41
2023-04-01T13:42:19.481Z,96014.69
2023-04-01T13:44:31.599Z,96005.34
2023-04-01T13:46:51.180Z,96024.94
2023-04-01T13:49:17.538Z,96015.34
2023-04-01T13:51:45.469Z,96009.72
2023-04-01T13:54:33.617Z,96015.34
2023-04-01T13:56:43.079Z,96015.69
2023-04-01T13:59:18.948Z,96022.97
2023-04-01T14:01:33.579Z,96023.53
2023-04-01T14:03:50.423Z,96010.38
2023-04-01T14:06:04.478Z,96019.34
2023-04-01T14:08:09.485Z,96026.13
2023-04-01T14:10:30.330Z,96034.06
2023-04-01T14:12:41.048Z,96027.34
2023-04-01T14:15:00.379Z,96029.50
2023-04-01T14:17:18.536Z,96036.00
2023-04-01T14:19:33.779Z,96037.78
2023-04-01T14:21:44.463Z,96031.19
2023-04-01T14:24:05.356Z,96043.38
2023-04-01T14:26:37.470Z,96043.09
2023-04-01T14:28:47.124Z,96037.78
2023-04-01T14:31:06.617Z,96046.72
2023-04-01T14:33:25.738Z,96048.41
2023-04-01T14:35:39.105Z,96051.78
2023-04-01T14:37:57.747Z,96059.31
2023-04-01T14:40:24.076Z,96051.97
2023-04-01T14:43:01.114Z,96045.16
2023-04-01T14:45:47.464Z,96053.34
2023-04-01T14:47:54.881Z,96060.91
2023-04-01T14:50:08.586Z,96056.41
2023-04-01T14:52:17.418Z,96049.03
2023-04-01T14:54:24.513Z,96058.44
2023-04-01T14:56:42.881Z,96059.22
2023-04-01T14:58:47.436Z,96057.44
2023-04-01T15:00:59.080Z,96054.84
2023-04-01T15:03:11.728Z,96051.56
2023-04-01T15:05:28.152Z,96063.06
2023-04-01T15:08:02.948Z,96058.75
2023-04-01T15:10:20.443Z,96061.63
2023-04-01T15:12:31.550Z,96058.28
2023-04-01T15:15:16.413Z,96065.00
2023-04-01T15:17:31.019Z,96062.66
2023-04-01T15:19:43.964Z,96064.63
2023-04-01T15:21:59.249Z,96062.56
2023-04-01T15:24:09.658Z,96066.31
2023-04-01T15:26:23.904Z,96068.53
2023-04-01T15:28:34.383Z,96055.66
2023-04-01T15:30:46.793Z,96069.38
2023-04-01T15:33:03.643Z,96075.34
2023-04-01T15:35:23.401Z,96074.31
2023-04-01T15:37:37.125Z,96076.28
2023-04-01T15:39:53.323Z,96067.63
2023-04-01T15:42:14.797Z,96090.56
2023-04-01T15:44:46.250Z,96087.63
2023-04-01T15:46:50.446Z,96089.50
2023-04-01T15:49:04.211Z,96089.69
2023-04-01T15:51:28.296Z,96090.72
2023-04-01T15:53:58.758Z,96091.34
2023-04-01T15:56:16.211Z,96088.09
2023-04-01T15:58:38.078Z,96085.59
2023-04-01T16:00:52.143Z,96083.69
2023-04-01T16:03:16.710Z,96090.53
2023-04-01T16:05:39.656Z,96091.94
2023-04-01T16:07:54.334Z,96082.50
2023-04-01T16:10:19.437Z,96078.09
2023-04-01T16:12:37.009Z,96095.31
2023-04-01T16:14:52.079Z,96097.50
2023-04-01T16:17:07.952Z,96097.66
2023-04-01T16:19:29.925Z,96095.22
2023-04-01T16:21:38.133Z,96087.66
2023-04-01T16:23:48.911Z,96107.91
2023-04-01T16:25:57.217Z,96094.84
2023-04-01T16:28:15.681Z,96097.41
2023-04-01T16:30:36.825Z,96089.06
2023-04-01T16:32:46.154Z,96102.63
2023-04-01T16:34:58.471Z,96103.00
2023-04-01T16:37:09.175Z,96098.25
2023-04-01T16:39:32.204Z,96095.88
2023-04-01T16:41:38.972Z,96094.13
2023-04-01T16:43:48.811Z,96085.13
2023-04-01T16:46:08.403Z,96088.72
2023-04-01T16:48:16.974Z,96089.69
2023-04-01T16:50:24.178Z,96095.69
2023-04-01T16:52:42.424Z,96095.31
2023-04-01T16:54:53.032Z,96094.13
2023-04-01T16:56:57.913Z,96101.22
2023-04-01T16:59:10.819Z,96108.59
2023-04-01T17:01:18.157Z,96102.91
2023-04-01T17:03:28.058Z,96101.59
2023-04-01T17:05:44.245Z,96101.97
2023-04-01T17:07:51.028Z,96102.72
2023-04-01T17:10:07.907Z,96099.81
2023-04-01T17:12:18.661Z,96103.34
2023-04-01T17:14:29.666Z,96103.44
2023-04-01T17:16:52.592Z,96096.88
2023-04-01T17:19:04.287Z,96097.94
2023-04-01T17:21:12.393Z,96098.94
2023-04-01T17:23:23.593Z,96101.59
2023-04-01T17:25:40.327Z,96100.88
2023-04-01T17:27:49.469Z,96102.41
2023-04-01T17:30:07.568Z,96103.78
2023-04-01T17:32:18.776Z,96101.06
2023-04-01T17:34:57.339Z,96112.38
2023-04-01T17:37:17.041Z,96114.22
2023-04-01T17:39:31.642Z,96119.72
2023-04-01T17:41:44.732Z,96119.44
2023-04-01T17:43:56.738Z,96126.91
2023-04-01T17:46:04.100Z,96125.72
2023-04-01T17:48:20.598Z,96127.88
2023-04-01T17:50:27.311Z,96136.06
2023-04-01T17:52:34.221Z,96142.38
2023-04-01T17:54:43.477Z,96136.06
2023-04-01T17:57:03.870Z,96133.78
2023-04-01T17:59:17.958Z,96139.91
2023-04-01T18:01:38.588Z,96149.06
2023-04-01T18:03:59.800Z,96148.28
2023-04-01T18:06:06.179Z,96150.75
2023-04-01T18:08:17.295Z,96145.38
2023-04-01T18:10:30.937Z,96148.84
2023-04-01T18:12:46.783Z,96147.53
2023-04-01T18:15:14.904Z,96160.25
2023-04-01T18:17:26.553Z,96155.69
2023-04-01T18:19:37.937Z,96153.97
2023-04-01T18:21:47.623Z,96151.84
2023-04-01T18:24:02.421Z,96168.47
2023-04-01T18:26:10.582Z,96160.06
2023-04-01T18:28:34.694Z,96166.16
2023-04-01T18:30:38.184Z,96176.00
2023-04-01T18:32:49.794Z,96173.72
2023-04-01T18:34:59.841Z,96183.47
2023-04-01T18:37:18.906Z,96185.25
2023-04-01T18:39:32.381Z,96198.88
2023-04-01T18:41:42.767Z,96199.19
2023-04-01T18:44:01.016Z,96202.97
2023-04-01T18:46:10.377Z,96213.97
2023-04-01T18:48:39.470Z,96215.84
2023-04-01T18:50:49.399Z,96221.41
2023-04-01T18:52:57.123Z,96218.97
2023-04-01T18:55:36.882Z,96233.00
2023-04-01T18:57:48.432Z,96230.25
2023-04-01T18:59:57.226Z,96242.66
2023-04-01T19:02:11.167Z,96235.16
2023-04-01T19:04:23.059Z,96246.81
2023-04-01T19:06:29.377Z,96247.50
2023-04-01T19:08:34.942Z,96248.91
2023-04-01T19:10:46.193Z,96248.31
2023-04-01T19:13:02.024Z,96248.25
2023-04-01T19:15:17.770Z,96251.63
2023-04-01T19:17:32.137Z,96252.72
2023-04-01T19:19:56.569Z,96245.53
2023-04-01T19:22:05.245Z,96241.16
2023-04-01T19:24:44.502Z,96252.03
2023-04-01T19:26:51.090Z,96249.66
2023-04-01T19:28:58.187Z,96249.72
2023-04-01T19:31:09.947Z,96252.84
2023-04-01T19:33:21.296Z,96261.50
2023-04-01T19:35:37.772Z,96249.47
2023-04-01T19:37:42.625Z,96250.81
2023-04-01T19:39:53.051Z,96252.38
2023-04-01T19:42:03.906Z,96255.59
2023-04-01T19:44:21.445Z,96261.09
2023-04-01T19:46:32.921Z,96256.16
2023-04-01T19:48:51.417Z,96258.06
2023-04-01T19:50:59.780Z,96255.63
2023-04-01T19:53:13.602Z,96254.94
2023-04-01T19:55:30.869Z,96253.91
2023-04-01T19:57:44.832Z,96254.06
2023-04-01T19:59:52.979Z,96256.06
2023-04-01T20:02:03.613Z,96264.84
2023-04-01T20:04:10.616Z,96257.28
2023-04-01T20:06:22.610Z,96260.88
2023-04-01T20:08:31.054Z,96257.53
2023-04-01T20:10:39.979Z,96263.63
2023-04-01T20:12:51.416Z,96255.97
2023-04-01T20:14:57.264Z,96266.38
2023-04-01T20:17:16.162Z,96271.75
2023-04-01T20:19:29.858Z,96274.97
2023-04-01T20:21:38.123Z,96286.66
2023-04-01T20:23:44.822Z,96285.13
2023-04-01T20:25:53.831Z,96290.63
2023-04-01T20:28:00.234Z,96289.69
2023-04-01T20:30:19.870Z,96290.47
2023-04-01T20:32:42.762Z,96291.78
2023-04-01T20:35:01.104Z,96288.66
2023-04-01T20:37:17.542Z,96291.78
2023-04-01T20:39:43.014Z,96288.34
2023-04-01T20:41:58.733Z,96283.97
2023-04-01T20:44:06.699Z,96283.91
2023-04-01T20:46:21.435Z,96280.94
2023-04-01T20:48:47.173Z,96281.00
2023-04-01T20:50:53.095Z,96291.34
2023-04-01T20:53:03.452Z,96291.34
2023-04-01T20:55:28.004Z,96299.97
2023-04-01T20:57:37.371Z,96302.22
2023-04-01T20:59:57.347Z,96298.56
2023-04-01T21:02:14.667Z,96296.25
2023-04-01T21:04:30.440Z,96296.41
2023-04-01T21:06:46.734Z,96293.78
2023-04-01T22:48:11.488Z,96391.31
2023-04-01T22:50:21.508Z,96398.84
2023-04-01T22:52:32.701Z,96396.31
2023-04-01T22:54:40.475Z,96395.28
2023-04-01T22:56:48.064Z,96392.81
2023-04-01T22:58:56.815Z,96394.16
2023-04-01T23:01:03.483Z,96397.19
2023-04-01T23:03:16.839Z,96396.13
2023-04-01T23:05:24.253Z,96398.72
2023-04-01T23:08:12.515Z,96399.22
2023-04-01T23:10:23.042Z,96405.19
2023-04-01T23:12:28.160Z,96413.00
2023-04-01T23:14:45.016Z,96408.41
2023-04-01T23:30:59.205Z,96417.94
2023-04-01T23:33:13.566Z,96420.66
2023-04-01T23:35:18.739Z,96418.00
2023-04-01T23:37:22.870Z,96416.66
2023-04-01T23:39:30.269Z,96425.59
2023-04-01T23:41:34.348Z,96419.59
2023-04-01T23:43:39.822Z,96428.03
2023-04-01T23:45:44.263Z,96427.63
2023-04-01T23:47:49.877Z,96429.66
2023-04-01T23:49:56.425Z,96427.63
2023-04-01T23:52:01.323Z,96433.06
2023-04-01T23:54:12.431Z,96432.47
2023-04-01T23:56:18.159Z,96429.78
2023-04-01T23:58:26.882Z,96433.44
